sensor_id;sensor_type;location;lat;lon;timestamp;temperature;humidity
17092;DHT22;8661;45.700;4.880;2022-12-18T00:02:19;0.00;99.90
17092;DHT22;8661;45.700;4.880;2022-12-18T00:04:47;0.10;99.90
17092;DHT22;8661;45.700;4.880;2022-12-18T00:07:14;0.10;99.90
17092;DHT22;8661;45.700;4.880;2022-12-18T00:09:41;0.00;99.90
17092;DHT22;8661;45.700;4.880;2022-12-18T00:12:08;0.00;99.90
17092;DHT22;8661;45.700;4.880;2022-12-18T00:14:34;0.00;99.90
17092;DHT22;8661;45.700;4.880;2022-12-18T00:17:03;0.00;99.90
17092;DHT22;8661;45.700;4.880;2022-12-18T00:19:30;0.10;99.90
17092;DHT22;8661;45.700;4.880;2022-12-18T00:21:57;0.10;99.90
17092;DHT22;8661;45.700;4.880;2022-12-18T00:24:24;0.10;99.90
17092;DHT22;8661;45.700;4.880;2022-12-18T00:26:51;0.10;99.90
17092;DHT22;8661;45.700;4.880;2022-12-18T00:29:18;0.20;99.90
17092;DHT22;8661;45.700;4.880;2022-12-18T00:31:46;0.20;99.90
17092;DHT22;8661;45.700;4.880;2022-12-18T00:34:14;0.20;99.90
17092;DHT22;8661;45.700;4.880;2022-12-18T00:36:41;0.10;99.90
17092;DHT22;8661;45.700;4.880;2022-12-18T00:39:10;0.10;99.90
17092;DHT22;8661;45.700;4.880;2022-12-18T00:41:37;0.10;99.90
17092;DHT22;8661;45.700;4.880;2022-12-18T00:44:21;0.10;99.90
17092;DHT22;8661;45.700;4.880;2022-12-18T00:46:48;0.10;99.90
17092;DHT22;8661;45.700;4.880;2022-12-18T00:49:18;0.10;99.90
17092;DHT22;8661;45.700;4.880;2022-12-18T00:51:46;0.10;99.90
17092;DHT22;8661;45.700;4.880;2022-12-18T00:54:13;0.10;99.90
17092;DHT22;8661;45.700;4.880;2022-12-18T00:56:40;0.10;99.90
17092;DHT22;8661;45.700;4.880;2022-12-18T00:59:07;0.20;99.90
17092;DHT22;8661;45.700;4.880;2022-12-18T01:01:34;0.20;99.90
17092;DHT22;8661;45.700;4.880;2022-12-18T01:04:02;0.30;99.90
17092;DHT22;8661;45.700;4.880;2022-12-18T01:06:30;0.30;99.90
17092;DHT22;8661;45.700;4.880;2022-12-18T01:08:57;0.30;99.90
17092;DHT22;8661;45.700;4.880;2022-12-18T01:11:24;0.30;99.90
17092;DHT22;8661;45.700;4.880;2022-12-18T01:13:52;0.30;99.90
17092;DHT22;8661;45.700;4.880;2022-12-18T01:16:19;0.20;99.90
17092;DHT22;8661;45.700;4.880;2022-12-18T01:18:45;0.30;99.90
17092;DHT22;8661;45.700;4.880;2022-12-18T01:21:14;0.30;99.90
17092;DHT22;8661;45.700;4.880;2022-12-18T01:23:43;0.30;99.90
17092;DHT22;8661;45.700;4.880;2022-12-18T01:26:11;0.40;99.90
17092;DHT22;8661;45.700;4.880;2022-12-18T01:28:39;0.60;99.90
17092;DHT22;8661;45.700;4.880;2022-12-18T01:31:14;0.50;99.90
17092;DHT22;8661;45.700;4.880;2022-12-18T01:33:41;0.40;99.90
17092;DHT22;8661;45.700;4.880;2022-12-18T01:36:08;0.40;99.90
17092;DHT22;8661;45.700;4.880;2022-12-18T01:38:35;0.40;99.90
17092;DHT22;8661;45.700;4.880;2022-12-18T01:41:03;0.40;99.90
17092;DHT22;8661;45.700;4.880;2022-12-18T01:43:44;0.40;99.90
17092;DHT22;8661;45.700;4.880;2022-12-18T01:46:12;0.40;99.90
17092;DHT22;8661;45.700;4.880;2022-12-18T01:48:39;0.40;99.90
17092;DHT22;8661;45.700;4.880;2022-12-18T01:51:09;0.50;99.90
17092;DHT22;8661;45.700;4.880;2022-12-18T01:53:37;0.40;99.90
17092;DHT22;8661;45.700;4.880;2022-12-18T01:56:07;0.50;99.90
17092;DHT22;8661;45.700;4.880;2022-12-18T01:58:39;0.40;99.90
17092;DHT22;8661;45.700;4.880;2022-12-18T02:01:08;0.40;99.90
17092;DHT22;8661;45.700;4.880;2022-12-18T02:03:35;0.50;99.90
17092;DHT22;8661;45.700;4.880;2022-12-18T02:06:07;0.60;99.90
17092;DHT22;8661;45.700;4.880;2022-12-18T02:08:40;0.60;99.90
17092;DHT22;8661;45.700;4.880;2022-12-18T02:11:17;0.60;99.90
17092;DHT22;8661;45.700;4.880;2022-12-18T02:13:52;0.60;99.90
17092;DHT22;8661;45.700;4.880;2022-12-18T02:16:24;0.60;99.90
17092;DHT22;8661;45.700;4.880;2022-12-18T02:18:55;0.60;99.90
17092;DHT22;8661;45.700;4.880;2022-12-18T02:21:34;0.60;99.90
17092;DHT22;8661;45.700;4.880;2022-12-18T02:24:18;0.40;99.90
17092;DHT22;8661;45.700;4.880;2022-12-18T02:26:52;0.60;99.90
17092;DHT22;8661;45.700;4.880;2022-12-18T02:29:23;0.60;99.90
17092;DHT22;8661;45.700;4.880;2022-12-18T02:31:56;0.60;99.90
17092;DHT22;8661;45.700;4.880;2022-12-18T02:34:26;0.60;99.90
17092;DHT22;8661;45.700;4.880;2022-12-18T02:36:55;0.70;99.90
17092;DHT22;8661;45.700;4.880;2022-12-18T02:39:25;0.60;99.90
17092;DHT22;8661;45.700;4.880;2022-12-18T02:41:54;0.60;99.90
17092;DHT22;8661;45.700;4.880;2022-12-18T02:44:21;0.60;99.90
17092;DHT22;8661;45.700;4.880;2022-12-18T02:46:51;0.60;99.90
17092;DHT22;8661;45.700;4.880;2022-12-18T02:49:26;0.60;99.90
17092;DHT22;8661;45.700;4.880;2022-12-18T02:51:59;0.70;99.90
17092;DHT22;8661;45.700;4.880;2022-12-18T02:54:49;0.70;99.90
17092;DHT22;8661;45.700;4.880;2022-12-18T02:57:24;0.70;99.90
17092;DHT22;8661;45.700;4.880;2022-12-18T03:00:00;0.70;99.90
17092;DHT22;8661;45.700;4.880;2022-12-18T03:02:35;0.70;99.90
17092;DHT22;8661;45.700;4.880;2022-12-18T03:05:08;0.70;99.90
17092;DHT22;8661;45.700;4.880;2022-12-18T03:07:41;0.60;99.90
17092;DHT22;8661;45.700;4.880;2022-12-18T03:10:13;0.50;99.90
17092;DHT22;8661;45.700;4.880;2022-12-18T03:12:44;0.50;99.90
17092;DHT22;8661;45.700;4.880;2022-12-18T03:15:17;0.50;99.90
17092;DHT22;8661;45.700;4.880;2022-12-18T03:17:48;0.50;99.90
17092;DHT22;8661;45.700;4.880;2022-12-18T03:20:20;0.50;99.90
17092;DHT22;8661;45.700;4.880;2022-12-18T03:22:52;0.40;99.90
17092;DHT22;8661;45.700;4.880;2022-12-18T03:25:20;0.50;99.90
17092;DHT22;8661;45.700;4.880;2022-12-18T03:27:53;0.40;99.90
17092;DHT22;8661;45.700;4.880;2022-12-18T03:30:21;0.50;99.90
17092;DHT22;8661;45.700;4.880;2022-12-18T03:32:52;0.50;99.90
17092;DHT22;8661;45.700;4.880;2022-12-18T03:35:22;0.60;99.90
17092;DHT22;8661;45.700;4.880;2022-12-18T03:37:51;0.50;99.90
17092;DHT22;8661;45.700;4.880;2022-12-18T03:40:19;0.60;99.90
17092;DHT22;8661;45.700;4.880;2022-12-18T03:42:51;0.50;99.90
17092;DHT22;8661;45.700;4.880;2022-12-18T03:45:23;0.50;99.90
17092;DHT22;8661;45.700;4.880;2022-12-18T03:47:58;0.50;99.90
17092;DHT22;8661;45.700;4.880;2022-12-18T03:50:33;0.60;99.90
17092;DHT22;8661;45.700;4.880;2022-12-18T03:53:10;0.50;99.90
17092;DHT22;8661;45.700;4.880;2022-12-18T03:55:38;0.50;99.90
17092;DHT22;8661;45.700;4.880;2022-12-18T03:58:08;0.50;99.90
17092;DHT22;8661;45.700;4.880;2022-12-18T04:00:38;0.50;99.90
17092;DHT22;8661;45.700;4.880;2022-12-18T04:03:06;0.50;99.90
17092;DHT22;8661;45.700;4.880;2022-12-18T04:05:36;0.50;99.90
17092;DHT22;8661;45.700;4.880;2022-12-18T04:08:04;0.50;99.90
17092;DHT22;8661;45.700;4.880;2022-12-18T04:10:31;0.50;99.90
17092;DHT22;8661;45.700;4.880;2022-12-18T04:12:58;0.50;99.90
17092;DHT22;8661;45.700;4.880;2022-12-18T04:15:26;0.50;99.90
17092;DHT22;8661;45.700;4.880;2022-12-18T04:17:53;0.50;99.90
17092;DHT22;8661;45.700;4.880;2022-12-18T04:20:20;0.50;99.90
17092;DHT22;8661;45.700;4.880;2022-12-18T04:22:47;0.50;99.90
17092;DHT22;8661;45.700;4.880;2022-12-18T04:25:14;0.50;99.90
17092;DHT22;8661;45.700;4.880;2022-12-18T04:27:41;0.50;99.90
17092;DHT22;8661;45.700;4.880;2022-12-18T04:30:09;0.50;99.90
17092;DHT22;8661;45.700;4.880;2022-12-18T04:32:37;0.50;99.90
17092;DHT22;8661;45.700;4.880;2022-12-18T04:35:05;0.40;99.90
17092;DHT22;8661;45.700;4.880;2022-12-18T04:37:35;0.40;99.90
17092;DHT22;8661;45.700;4.880;2022-12-18T04:40:03;0.40;99.90
17092;DHT22;8661;45.700;4.880;2022-12-18T04:42:30;0.30;99.90
17092;DHT22;8661;45.700;4.880;2022-12-18T04:44:56;0.30;99.90
17092;DHT22;8661;45.700;4.880;2022-12-18T04:47:23;0.20;99.90
17092;DHT22;8661;45.700;4.880;2022-12-18T04:49:52;0.20;99.90
17092;DHT22;8661;45.700;4.880;2022-12-18T04:52:18;0.20;99.90
17092;DHT22;8661;45.700;4.880;2022-12-18T04:54:45;0.20;99.90
17092;DHT22;8661;45.700;4.880;2022-12-18T04:57:12;0.20;99.90
17092;DHT22;8661;45.700;4.880;2022-12-18T04:59:39;0.20;99.90
17092;DHT22;8661;45.700;4.880;2022-12-18T05:02:06;0.20;99.90
17092;DHT22;8661;45.700;4.880;2022-12-18T05:04:33;0.30;99.90
17092;DHT22;8661;45.700;4.880;2022-12-18T05:07:01;0.30;99.90
17092;DHT22;8661;45.700;4.880;2022-12-18T05:09:28;0.30;99.90
17092;DHT22;8661;45.700;4.880;2022-12-18T05:11:55;0.30;99.90
17092;DHT22;8661;45.700;4.880;2022-12-18T05:14:21;0.40;99.90
17092;DHT22;8661;45.700;4.880;2022-12-18T05:16:48;0.40;99.90
17092;DHT22;8661;45.700;4.880;2022-12-18T05:19:15;0.40;99.90
17092;DHT22;8661;45.700;4.880;2022-12-18T05:21:42;0.40;99.90
17092;DHT22;8661;45.700;4.880;2022-12-18T05:24:10;0.40;99.90
17092;DHT22;8661;45.700;4.880;2022-12-18T05:26:37;0.50;99.90
17092;DHT22;8661;45.700;4.880;2022-12-18T05:29:04;0.50;99.90
17092;DHT22;8661;45.700;4.880;2022-12-18T05:31:31;0.60;99.90
17092;DHT22;8661;45.700;4.880;2022-12-18T05:33:58;0.60;99.90
17092;DHT22;8661;45.700;4.880;2022-12-18T05:36:25;0.60;99.90
17092;DHT22;8661;45.700;4.880;2022-12-18T05:38:51;0.60;99.90
17092;DHT22;8661;45.700;4.880;2022-12-18T05:41:20;0.60;99.90
17092;DHT22;8661;45.700;4.880;2022-12-18T05:43:47;0.70;99.90
17092;DHT22;8661;45.700;4.880;2022-12-18T05:46:15;0.60;99.90
17092;DHT22;8661;45.700;4.880;2022-12-18T05:48:43;0.60;99.90
17092;DHT22;8661;45.700;4.880;2022-12-18T05:51:13;0.60;99.90
17092;DHT22;8661;45.700;4.880;2022-12-18T05:53:41;0.50;99.90
17092;DHT22;8661;45.700;4.880;2022-12-18T05:56:09;0.50;99.90
17092;DHT22;8661;45.700;4.880;2022-12-18T05:58:38;0.60;99.90
17092;DHT22;8661;45.700;4.880;2022-12-18T06:01:07;0.50;99.90
17092;DHT22;8661;45.700;4.880;2022-12-18T06:03:35;0.50;99.90
17092;DHT22;8661;45.700;4.880;2022-12-18T06:06:02;0.50;99.90
17092;DHT22;8661;45.700;4.880;2022-12-18T06:08:29;0.50;99.90
17092;DHT22;8661;45.700;4.880;2022-12-18T06:10:56;0.60;99.90
17092;DHT22;8661;45.700;4.880;2022-12-18T06:13:22;0.60;99.90
17092;DHT22;8661;45.700;4.880;2022-12-18T06:15:51;0.60;99.90
17092;DHT22;8661;45.700;4.880;2022-12-18T06:18:17;0.60;99.90
17092;DHT22;8661;45.700;4.880;2022-12-18T06:20:44;0.60;99.90
17092;DHT22;8661;45.700;4.880;2022-12-18T06:23:11;0.60;99.90
17092;DHT22;8661;45.700;4.880;2022-12-18T06:25:38;0.50;99.90
17092;DHT22;8661;45.700;4.880;2022-12-18T06:28:05;0.60;99.90
17092;DHT22;8661;45.700;4.880;2022-12-18T06:30:32;0.50;99.90
17092;DHT22;8661;45.700;4.880;2022-12-18T06:33:00;0.60;99.90
17092;DHT22;8661;45.700;4.880;2022-12-18T06:35:27;0.70;99.90
17092;DHT22;8661;45.700;4.880;2022-12-18T06:37:54;0.60;99.90
17092;DHT22;8661;45.700;4.880;2022-12-18T06:40:21;0.50;99.90
17092;DHT22;8661;45.700;4.880;2022-12-18T06:42:48;0.60;99.90
17092;DHT22;8661;45.700;4.880;2022-12-18T06:45:15;0.70;99.90
17092;DHT22;8661;45.700;4.880;2022-12-18T06:47:42;0.60;99.90
17092;DHT22;8661;45.700;4.880;2022-12-18T06:50:10;0.70;99.90
17092;DHT22;8661;45.700;4.880;2022-12-18T06:52:37;0.60;99.90
17092;DHT22;8661;45.700;4.880;2022-12-18T06:55:05;0.60;99.90
17092;DHT22;8661;45.700;4.880;2022-12-18T06:57:33;0.60;99.90
17092;DHT22;8661;45.700;4.880;2022-12-18T07:00:00;0.60;99.90
17092;DHT22;8661;45.700;4.880;2022-12-18T07:02:28;0.60;99.90
17092;DHT22;8661;45.700;4.880;2022-12-18T07:04:55;0.50;99.90
17092;DHT22;8661;45.700;4.880;2022-12-18T07:07:23;0.60;99.90
17092;DHT22;8661;45.700;4.880;2022-12-18T07:09:50;0.60;99.90
17092;DHT22;8661;45.700;4.880;2022-12-18T07:12:17;0.60;99.90
17092;DHT22;8661;45.700;4.880;2022-12-18T07:14:44;0.50;99.90
17092;DHT22;8661;45.700;4.880;2022-12-18T07:17:11;0.50;99.90
17092;DHT22;8661;45.700;4.880;2022-12-18T07:19:38;0.60;99.90
17092;DHT22;8661;45.700;4.880;2022-12-18T07:22:05;0.60;99.90
17092;DHT22;8661;45.700;4.880;2022-12-18T07:24:34;0.50;99.90
17092;DHT22;8661;45.700;4.880;2022-12-18T07:27:00;0.40;99.90
17092;DHT22;8661;45.700;4.880;2022-12-18T07:29:27;0.40;99.90
17092;DHT22;8661;45.700;4.880;2022-12-18T07:31:57;0.50;99.90
17092;DHT22;8661;45.700;4.880;2022-12-18T07:34:24;0.50;99.90
17092;DHT22;8661;45.700;4.880;2022-12-18T07:36:50;0.50;99.90
17092;DHT22;8661;45.700;4.880;2022-12-18T07:39:17;0.50;99.90
17092;DHT22;8661;45.700;4.880;2022-12-18T07:41:45;0.50;99.90
17092;DHT22;8661;45.700;4.880;2022-12-18T07:44:32;0.60;99.90
17092;DHT22;8661;45.700;4.880;2022-12-18T07:46:59;0.60;99.90
17092;DHT22;8661;45.700;4.880;2022-12-18T07:49:27;0.60;99.90
17092;DHT22;8661;45.700;4.880;2022-12-18T07:51:55;0.50;99.90
17092;DHT22;8661;45.700;4.880;2022-12-18T07:54:22;0.50;99.90
17092;DHT22;8661;45.700;4.880;2022-12-18T07:56:50;0.50;99.90
17092;DHT22;8661;45.700;4.880;2022-12-18T07:59:18;0.50;99.90
17092;DHT22;8661;45.700;4.880;2022-12-18T08:01:45;0.60;99.90
17092;DHT22;8661;45.700;4.880;2022-12-18T08:04:11;0.60;99.90
17092;DHT22;8661;45.700;4.880;2022-12-18T08:06:38;0.60;99.90
17092;DHT22;8661;45.700;4.880;2022-12-18T08:09:05;0.60;99.90
17092;DHT22;8661;45.700;4.880;2022-12-18T08:11:34;0.70;99.90
17092;DHT22;8661;45.700;4.880;2022-12-18T08:14:02;0.70;99.90
17092;DHT22;8661;45.700;4.880;2022-12-18T08:16:29;0.70;99.90
17092;DHT22;8661;45.700;4.880;2022-12-18T08:18:56;0.70;99.90
17092;DHT22;8661;45.700;4.880;2022-12-18T08:21:25;0.80;99.90
17092;DHT22;8661;45.700;4.880;2022-12-18T08:23:53;0.80;99.90
17092;DHT22;8661;45.700;4.880;2022-12-18T08:26:21;0.80;99.90
17092;DHT22;8661;45.700;4.880;2022-12-18T08:28:50;0.80;99.90
17092;DHT22;8661;45.700;4.880;2022-12-18T08:31:19;0.90;99.90
17092;DHT22;8661;45.700;4.880;2022-12-18T08:33:48;1.00;99.90
17092;DHT22;8661;45.700;4.880;2022-12-18T08:36:16;1.10;99.90
17092;DHT22;8661;45.700;4.880;2022-12-18T08:38:43;1.10;99.90
17092;DHT22;8661;45.700;4.880;2022-12-18T08:41:12;1.20;99.90
17092;DHT22;8661;45.700;4.880;2022-12-18T08:43:39;1.20;99.90
17092;DHT22;8661;45.700;4.880;2022-12-18T08:46:26;1.30;99.90
17092;DHT22;8661;45.700;4.880;2022-12-18T08:48:54;1.30;99.90
17092;DHT22;8661;45.700;4.880;2022-12-18T08:51:21;1.40;99.90
17092;DHT22;8661;45.700;4.880;2022-12-18T08:53:48;1.40;99.90
17092;DHT22;8661;45.700;4.880;2022-12-18T08:56:15;1.50;99.90
17092;DHT22;8661;45.700;4.880;2022-12-18T08:58:42;1.40;99.90
17092;DHT22;8661;45.700;4.880;2022-12-18T09:01:11;1.30;99.90
17092;DHT22;8661;45.700;4.880;2022-12-18T09:03:39;1.20;99.90
17092;DHT22;8661;45.700;4.880;2022-12-18T09:06:07;1.20;99.90
17092;DHT22;8661;45.700;4.880;2022-12-18T09:08:34;1.20;99.90
17092;DHT22;8661;45.700;4.880;2022-12-18T09:11:01;1.30;99.90
17092;DHT22;8661;45.700;4.880;2022-12-18T09:13:29;1.30;99.90
17092;DHT22;8661;45.700;4.880;2022-12-18T09:15:56;1.30;99.90
17092;DHT22;8661;45.700;4.880;2022-12-18T09:18:24;1.30;99.90
17092;DHT22;8661;45.700;4.880;2022-12-18T09:20:52;1.30;99.90
17092;DHT22;8661;45.700;4.880;2022-12-18T09:23:19;1.50;99.90
17092;DHT22;8661;45.700;4.880;2022-12-18T09:25:46;1.50;99.90
17092;DHT22;8661;45.700;4.880;2022-12-18T09:28:17;1.60;99.90
17092;DHT22;8661;45.700;4.880;2022-12-18T09:30:45;1.60;99.90
17092;DHT22;8661;45.700;4.880;2022-12-18T09:33:13;1.60;99.90
17092;DHT22;8661;45.700;4.880;2022-12-18T09:35:42;1.80;99.90
17092;DHT22;8661;45.700;4.880;2022-12-18T09:38:13;1.80;99.90
17092;DHT22;8661;45.700;4.880;2022-12-18T09:40:43;1.80;99.90
17092;DHT22;8661;45.700;4.880;2022-12-18T09:43:15;1.90;99.90
17092;DHT22;8661;45.700;4.880;2022-12-18T09:45:46;2.00;99.90
17092;DHT22;8661;45.700;4.880;2022-12-18T09:48:19;2.20;99.90
17092;DHT22;8661;45.700;4.880;2022-12-18T09:50:48;2.50;99.90
17092;DHT22;8661;45.700;4.880;2022-12-18T09:53:21;2.60;99.90
17092;DHT22;8661;45.700;4.880;2022-12-18T09:55:51;2.90;99.90
17092;DHT22;8661;45.700;4.880;2022-12-18T09:58:25;3.30;99.90
17092;DHT22;8661;45.700;4.880;2022-12-18T10:00:53;3.40;99.90
17092;DHT22;8661;45.700;4.880;2022-12-18T10:03:21;3.50;99.90
17092;DHT22;8661;45.700;4.880;2022-12-18T10:05:55;4.40;99.90
17092;DHT22;8661;45.700;4.880;2022-12-18T10:08:33;4.50;99.90
17092;DHT22;8661;45.700;4.880;2022-12-18T10:11:20;4.70;99.90
17092;DHT22;8661;45.700;4.880;2022-12-18T10:13:53;4.80;99.90
17092;DHT22;8661;45.700;4.880;2022-12-18T10:16:27;5.10;99.90
17092;DHT22;8661;45.700;4.880;2022-12-18T10:19:09;5.70;99.90
17092;DHT22;8661;45.700;4.880;2022-12-18T10:21:42;8.20;99.90
17092;DHT22;8661;45.700;4.880;2022-12-18T10:24:18;10.70;99.90
17092;DHT22;8661;45.700;4.880;2022-12-18T10:26:47;12.30;99.90
17092;DHT22;8661;45.700;4.880;2022-12-18T10:29:15;14.70;95.90
17092;DHT22;8661;45.700;4.880;2022-12-18T10:31:43;16.30;91.20
17092;DHT22;8661;45.700;4.880;2022-12-18T10:34:10;17.10;86.40
17092;DHT22;8661;45.700;4.880;2022-12-18T10:36:40;18.10;81.00
17092;DHT22;8661;45.700;4.880;2022-12-18T10:39:27;18.90;78.10
17092;DHT22;8661;45.700;4.880;2022-12-18T10:42:09;19.70;71.40
17092;DHT22;8661;45.700;4.880;2022-12-18T10:44:36;19.80;70.70
17092;DHT22;8661;45.700;4.880;2022-12-18T10:47:06;20.20;70.80
17092;DHT22;8661;45.700;4.880;2022-12-18T10:49:34;20.90;68.60
17092;DHT22;8661;45.700;4.880;2022-12-18T10:52:11;20.70;67.30
17092;DHT22;8661;45.700;4.880;2022-12-18T10:54:46;20.90;66.70
17092;DHT22;8661;45.700;4.880;2022-12-18T10:57:16;21.40;65.90
17092;DHT22;8661;45.700;4.880;2022-12-18T10:59:51;21.40;66.50
17092;DHT22;8661;45.700;4.880;2022-12-18T11:02:27;21.70;63.20
17092;DHT22;8661;45.700;4.880;2022-12-18T11:04:54;21.90;62.30
17092;DHT22;8661;45.700;4.880;2022-12-18T11:07:21;22.10;63.30
17092;DHT22;8661;45.700;4.880;2022-12-18T11:10:02;22.60;61.90
17092;DHT22;8661;45.700;4.880;2022-12-18T11:12:29;23.00;58.80
17092;DHT22;8661;45.700;4.880;2022-12-18T11:14:57;22.40;60.70
17092;DHT22;8661;45.700;4.880;2022-12-18T11:17:28;22.80;61.10
17092;DHT22;8661;45.700;4.880;2022-12-18T11:19:57;23.20;59.50
17092;DHT22;8661;45.700;4.880;2022-12-18T11:22:26;23.60;59.30
17092;DHT22;8661;45.700;4.880;2022-12-18T11:24:57;23.50;58.80
17092;DHT22;8661;45.700;4.880;2022-12-18T11:27:25;23.30;58.40
17092;DHT22;8661;45.700;4.880;2022-12-18T11:29:52;23.60;58.80
17092;DHT22;8661;45.700;4.880;2022-12-18T11:32:34;23.60;58.40
17092;DHT22;8661;45.700;4.880;2022-12-18T11:35:10;23.20;57.10
17092;DHT22;8661;45.700;4.880;2022-12-18T11:37:43;22.80;59.00
17092;DHT22;8661;45.700;4.880;2022-12-18T11:40:15;23.20;58.90
17092;DHT22;8661;45.700;4.880;2022-12-18T11:42:48;23.40;58.30
17092;DHT22;8661;45.700;4.880;2022-12-18T11:45:28;23.00;58.50
17092;DHT22;8661;45.700;4.880;2022-12-18T11:48:03;23.20;58.00
17092;DHT22;8661;45.700;4.880;2022-12-18T11:50:49;23.30;58.10
17092;DHT22;8661;45.700;4.880;2022-12-18T11:53:17;23.50;58.00
17092;DHT22;8661;45.700;4.880;2022-12-18T11:55:55;23.60;58.00
17092;DHT22;8661;45.700;4.880;2022-12-18T11:58:43;22.20;56.40
17092;DHT22;8661;45.700;4.880;2022-12-18T12:01:18;20.50;59.00
17092;DHT22;8661;45.700;4.880;2022-12-18T12:04:00;19.70;63.10
17092;DHT22;8661;45.700;4.880;2022-12-18T12:06:44;19.20;64.00
17092;DHT22;8661;45.700;4.880;2022-12-18T12:09:19;18.40;66.80
17092;DHT22;8661;45.700;4.880;2022-12-18T12:12:11;17.90;68.90
17092;DHT22;8661;45.700;4.880;2022-12-18T12:14:49;17.50;70.10
17092;DHT22;8661;45.700;4.880;2022-12-18T12:17:30;17.10;72.00
17092;DHT22;8661;45.700;4.880;2022-12-18T12:20:05;16.80;72.90
17092;DHT22;8661;45.700;4.880;2022-12-18T12:22:41;16.70;73.50
17092;DHT22;8661;45.700;4.880;2022-12-18T12:25:21;16.40;74.60
17092;DHT22;8661;45.700;4.880;2022-12-18T12:28:01;16.00;76.20
17092;DHT22;8661;45.700;4.880;2022-12-18T12:30:34;15.90;76.70
17092;DHT22;8661;45.700;4.880;2022-12-18T12:33:16;15.70;77.80
17092;DHT22;8661;45.700;4.880;2022-12-18T12:35:55;15.60;77.20
17092;DHT22;8661;45.700;4.880;2022-12-18T12:38:27;15.80;78.70
17092;DHT22;8661;45.700;4.880;2022-12-18T12:40:58;15.90;78.40
17092;DHT22;8661;45.700;4.880;2022-12-18T12:43:33;16.00;78.00
17092;DHT22;8661;45.700;4.880;2022-12-18T12:46:04;15.80;79.70
17092;DHT22;8661;45.700;4.880;2022-12-18T12:48:37;15.60;80.00
17092;DHT22;8661;45.700;4.880;2022-12-18T12:51:10;15.70;80.70
17092;DHT22;8661;45.700;4.880;2022-12-18T12:53:38;15.90;79.80
17092;DHT22;8661;45.700;4.880;2022-12-18T12:56:09;15.80;79.60
17092;DHT22;8661;45.700;4.880;2022-12-18T12:58:45;15.70;79.90
17092;DHT22;8661;45.700;4.880;2022-12-18T13:01:18;15.80;80.20
17092;DHT22;8661;45.700;4.880;2022-12-18T13:03:56;15.60;81.30
17092;DHT22;8661;45.700;4.880;2022-12-18T13:06:40;15.60;82.30
17092;DHT22;8661;45.700;4.880;2022-12-18T13:09:09;15.60;81.70
17092;DHT22;8661;45.700;4.880;2022-12-18T13:11:38;15.70;82.50
17092;DHT22;8661;45.700;4.880;2022-12-18T13:14:27;16.20;80.90
17092;DHT22;8661;45.700;4.880;2022-12-18T13:20:09;17.70;76.70
17092;DHT22;8661;45.700;4.880;2022-12-18T13:22:38;18.20;75.00
17092;DHT22;8661;45.700;4.880;2022-12-18T13:25:27;18.00;75.40
17092;DHT22;8661;45.700;4.880;2022-12-18T13:28:06;18.60;74.00
17092;DHT22;8661;45.700;4.880;2022-12-18T13:30:50;18.90;74.00
17092;DHT22;8661;45.700;4.880;2022-12-18T13:33:47;19.40;72.10
17092;DHT22;8661;45.700;4.880;2022-12-18T13:36:25;20.10;70.20
17092;DHT22;8661;45.700;4.880;2022-12-18T13:39:32;20.20;70.60
17092;DHT22;8661;45.700;4.880;2022-12-18T13:42:40;20.60;69.10
17092;DHT22;8661;45.700;4.880;2022-12-18T13:45:47;21.10;68.40
17092;DHT22;8661;45.700;4.880;2022-12-18T13:48:16;20.60;68.70
17092;DHT22;8661;45.700;4.880;2022-12-18T13:50:52;20.80;69.70
17092;DHT22;8661;45.700;4.880;2022-12-18T13:53:23;20.90;68.20
17092;DHT22;8661;45.700;4.880;2022-12-18T13:55:50;20.90;68.00
17092;DHT22;8661;45.700;4.880;2022-12-18T13:58:17;21.20;67.50
17092;DHT22;8661;45.700;4.880;2022-12-18T14:00:44;21.40;67.10
17092;DHT22;8661;45.700;4.880;2022-12-18T14:03:21;21.40;67.10
17092;DHT22;8661;45.700;4.880;2022-12-18T14:05:54;21.60;66.80
17092;DHT22;8661;45.700;4.880;2022-12-18T14:08:27;21.30;66.90
17092;DHT22;8661;45.700;4.880;2022-12-18T14:10:56;21.30;68.60
17092;DHT22;8661;45.700;4.880;2022-12-18T14:13:28;21.00;69.20
17092;DHT22;8661;45.700;4.880;2022-12-18T14:15:56;20.60;71.20
17092;DHT22;8661;45.700;4.880;2022-12-18T14:18:31;20.50;72.70
17092;DHT22;8661;45.700;4.880;2022-12-18T14:21:02;20.20;73.10
17092;DHT22;8661;45.700;4.880;2022-12-18T14:23:33;19.70;74.80
17092;DHT22;8661;45.700;4.880;2022-12-18T14:26:01;19.20;76.50
17092;DHT22;8661;45.700;4.880;2022-12-18T14:28:30;18.90;77.70
17092;DHT22;8661;45.700;4.880;2022-12-18T14:30:57;18.00;78.90
17092;DHT22;8661;45.700;4.880;2022-12-18T14:33:27;16.40;82.30
17092;DHT22;8661;45.700;4.880;2022-12-18T14:35:57;15.30;85.80
17092;DHT22;8661;45.700;4.880;2022-12-18T14:38:27;14.70;88.10
17092;DHT22;8661;45.700;4.880;2022-12-18T14:40:56;14.10;90.10
17092;DHT22;8661;45.700;4.880;2022-12-18T14:43:23;13.60;91.10
17092;DHT22;8661;45.700;4.880;2022-12-18T14:45:51;13.30;91.80
17092;DHT22;8661;45.700;4.880;2022-12-18T14:48:20;13.00;92.40
17092;DHT22;8661;45.700;4.880;2022-12-18T14:50:57;12.70;93.10
17092;DHT22;8661;45.700;4.880;2022-12-18T14:53:35;12.50;93.70
17092;DHT22;8661;45.700;4.880;2022-12-18T14:56:03;12.40;94.10
17092;DHT22;8661;45.700;4.880;2022-12-18T14:58:30;12.60;94.20
17092;DHT22;8661;45.700;4.880;2022-12-18T15:00:57;12.40;94.60
17092;DHT22;8661;45.700;4.880;2022-12-18T15:03:25;12.30;95.20
17092;DHT22;8661;45.700;4.880;2022-12-18T15:05:55;12.20;95.20
17092;DHT22;8661;45.700;4.880;2022-12-18T15:08:31;12.10;95.50
17092;DHT22;8661;45.700;4.880;2022-12-18T15:11:00;12.00;95.80
17092;DHT22;8661;45.700;4.880;2022-12-18T15:13:27;11.80;96.10
17092;DHT22;8661;45.700;4.880;2022-12-18T15:15:55;11.80;96.80
17092;DHT22;8661;45.700;4.880;2022-12-18T15:18:27;11.80;96.60
17092;DHT22;8661;45.700;4.880;2022-12-18T15:20:59;11.70;96.90
17092;DHT22;8661;45.700;4.880;2022-12-18T15:23:29;11.70;97.30
17092;DHT22;8661;45.700;4.880;2022-12-18T15:26:00;11.70;97.60
17092;DHT22;8661;45.700;4.880;2022-12-18T15:28:33;11.70;97.70
17092;DHT22;8661;45.700;4.880;2022-12-18T15:31:05;11.60;97.80
17092;DHT22;8661;45.700;4.880;2022-12-18T15:33:34;11.60;98.00
17092;DHT22;8661;45.700;4.880;2022-12-18T15:36:04;11.60;98.10
17092;DHT22;8661;45.700;4.880;2022-12-18T15:38:32;11.60;98.20
17092;DHT22;8661;45.700;4.880;2022-12-18T15:40:59;11.60;98.40
17092;DHT22;8661;45.700;4.880;2022-12-18T15:43:26;11.50;98.50
17092;DHT22;8661;45.700;4.880;2022-12-18T15:46:04;11.50;99.20
17092;DHT22;8661;45.700;4.880;2022-12-18T15:48:33;11.50;99.00
17092;DHT22;8661;45.700;4.880;2022-12-18T15:51:00;11.50;99.10
17092;DHT22;8661;45.700;4.880;2022-12-18T15:53:30;11.50;99.30
17092;DHT22;8661;45.700;4.880;2022-12-18T15:55:58;11.50;99.40
17092;DHT22;8661;45.700;4.880;2022-12-18T15:58:44;11.50;99.50
17092;DHT22;8661;45.700;4.880;2022-12-18T16:01:11;11.40;99.70
17092;DHT22;8661;45.700;4.880;2022-12-18T16:03:38;11.40;99.90
17092;DHT22;8661;45.700;4.880;2022-12-18T16:06:06;11.30;99.90
17092;DHT22;8661;45.700;4.880;2022-12-18T16:08:34;11.30;99.90
17092;DHT22;8661;45.700;4.880;2022-12-18T16:11:01;11.20;99.90
17092;DHT22;8661;45.700;4.880;2022-12-18T16:13:29;11.20;99.90
17092;DHT22;8661;45.700;4.880;2022-12-18T16:15:56;11.20;99.90
17092;DHT22;8661;45.700;4.880;2022-12-18T16:18:23;11.10;99.90
17092;DHT22;8661;45.700;4.880;2022-12-18T16:20:50;11.10;99.90
17092;DHT22;8661;45.700;4.880;2022-12-18T16:23:17;11.10;99.90